Time;durP1;ratioP1;P1;durP2;ratioP2;P2;SDS_P1;SDS_P2;PMS_P1;PMS_P2;Temp;Humidity;BMP_temperature;BMP_pressure;BME280_temperature;BME280_humidity;BME280_pressure;Samples;Min_cycle;Max_cycle;Signal;HPM_P1;HPM_P2
2022/08/26 00:01:36;;;;;;;8.82;3.80;;;20.00;68.00;;;;;;5013059;28;20482;-82
2022/08/26 00:04:02;;;;;;;3.70;3.40;;;20.00;67.80;;;;;;5014086;28;20394;-82
2022/08/26 00:06:29;;;;;;;8.10;3.50;;;20.00;68.10;;;;;;5014019;28;20163;-82
2022/08/26 00:08:55;;;;;;;6.00;4.20;;;19.90;68.20;;;;;;5013265;28;20487;-80
2022/08/26 00:11:21;;;;;;;6.97;3.17;;;20.00;68.20;;;;;;5015363;28;20030;-83
2022/08/26 00:13:46;;;;;;;4.35;3.47;;;19.90;68.30;;;;;;5035645;28;20075;-83
2022/08/26 00:16:12;;;;;;;3.85;3.40;;;19.90;68.60;;;;;;5037573;28;20030;-79
2022/08/26 00:18:38;;;;;;;5.35;3.67;;;19.80;68.60;;;;;;5036929;28;20046;-82
2022/08/26 00:21:05;;;;;;;6.70;3.55;;;19.80;68.70;;;;;;5013529;28;20091;-82
2022/08/26 00:23:31;;;;;;;4.63;3.63;;;19.70;69.00;;;;;;5013084;28;20030;-81
2022/08/26 00:25:57;;;;;;;5.72;3.88;;;19.60;69.50;;;;;;5013117;28;20022;-82
2022/08/26 00:28:22;;;;;;;5.82;4.18;;;19.40;70.40;;;;;;5014318;28;20097;-81
2022/08/26 00:30:48;;;;;;;3.90;3.60;;;19.40;70.70;;;;;;5017018;28;20056;-82
2022/08/26 00:33:15;;;;;;;4.45;3.53;;;19.30;71.20;;;;;;5013459;28;20394;-82
2022/08/26 00:35:41;;;;;;;6.80;4.40;;;19.10;71.70;;;;;;5012901;28;20084;-83
2022/08/26 00:38:07;;;;;;;4.57;4.18;;;19.00;72.00;;;;;;5012744;28;20026;-82
2022/08/26 00:40:42;;;;;;;5.78;3.75;;;19.00;72.10;;;;;;5012869;28;20058;-82
2022/08/26 00:43:07;;;;;;;5.43;3.63;;;19.00;72.10;;;;;;5012878;28;20479;-83
2022/08/26 00:46:18;;;;;;;5.43;3.95;;;19.10;72.00;;;;;;5012851;28;20025;-81
2022/08/26 00:48:48;;;;;;;5.88;3.60;;;19.20;71.70;;;;;;5012937;28;20030;-82
2022/08/26 00:51:23;;;;;;;6.25;3.70;;;19.20;71.50;;;;;;5012768;28;20026;-82
2022/08/26 00:54:01;;;;;;;4.05;3.65;;;19.30;71.20;;;;;;5012922;28;20014;-82
2022/08/26 00:56:36;;;;;;;4.40;3.45;;;19.40;70.60;;;;;;5014165;28;20040;-82
2022/08/26 00:59:10;;;;;;;6.28;3.67;;;19.40;70.60;;;;;;5016272;28;20418;-81
2022/08/26 01:01:38;;;;;;;4.93;3.78;;;19.40;70.30;;;;;;5016142;28;20109;-81
2022/08/26 01:04:04;;;;;;;4.57;3.58;;;19.50;70.30;;;;;;5016294;28;20104;-81
2022/08/26 01:06:30;;;;;;;5.05;3.50;;;19.50;70.50;;;;;;5015677;28;20156;-80
2022/08/26 01:08:56;;;;;;;4.75;3.60;;;19.50;70.20;;;;;;5019350;28;20026;-82
2022/08/26 01:11:22;;;;;;;6.53;3.65;;;19.50;70.10;;;;;;5016426;28;20491;-81
2022/08/26 01:13:53;;;;;;;4.53;3.63;;;19.60;69.80;;;;;;5016016;28;20100;-82
2022/08/26 01:16:19;;;;;;;5.03;3.78;;;19.60;69.70;;;;;;5016134;28;20045;-81
2022/08/26 01:18:46;;;;;;;4.50;3.70;;;19.70;69.20;;;;;;5016017;28;20109;-80
2022/08/26 01:21:39;;;;;;;4.20;3.80;;;19.60;69.20;;;;;;5015661;28;20068;-81
2022/08/26 01:24:06;;;;;;;4.03;3.58;;;19.60;69.50;;;;;;5015893;28;20372;-82
2022/08/26 01:26:34;;;;;;;5.63;3.65;;;19.60;69.40;;;;;;5015916;28;20025;-82
2022/08/26 01:29:03;;;;;;;3.75;3.35;;;19.50;69.80;;;;;;5015872;28;20097;-82
2022/08/26 01:31:36;;;;;;;3.78;3.40;;;19.40;70.10;;;;;;5015902;28;20030;-81
2022/08/26 01:34:11;;;;;;;4.75;3.28;;;19.30;70.50;;;;;;5015653;28;20059;-82
2022/08/26 01:36:40;;;;;;;5.15;3.55;;;19.20;70.60;;;;;;5015731;28;20026;-81
2022/08/26 01:39:06;;;;;;;6.05;3.53;;;19.20;70.70;;;;;;5014360;28;20026;-82
2022/08/26 01:41:32;;;;;;;4.93;3.50;;;19.30;70.60;;;;;;4997734;28;20505;-82
2022/08/26 01:43:59;;;;;;;4.95;3.20;;;19.30;70.40;;;;;;5015698;28;20026;-81
2022/08/26 01:46:27;;;;;;;4.32;3.08;;;19.30;70.30;;;;;;5015557;28;20048;-81
2022/08/26 01:48:55;;;;;;;4.88;3.22;;;19.20;70.40;;;;;;5015499;28;20022;-82
2022/08/26 01:51:23;;;;;;;5.72;3.50;;;19.20;70.40;;;;;;5015326;28;20354;-81
2022/08/26 01:53:49;;;;;;;5.60;3.50;;;19.20;70.60;;;;;;5015338;28;20034;-80
2022/08/26 01:56:15;;;;;;;3.50;3.20;;;19.20;70.60;;;;;;5015332;28;20113;-80
2022/08/26 01:58:47;;;;;;;5.57;3.47;;;19.10;70.70;;;;;;5015359;28;20026;-80
2022/08/26 02:01:13;;;;;;;4.35;3.42;;;19.10;71.00;;;;;;4997685;28;20065;-79
2022/08/26 02:03:54;;;;;;;6.35;3.60;;;19.00;71.00;;;;;;5015288;28;20076;-81
2022/08/26 02:06:20;;;;;;;4.00;3.60;;;19.00;71.10;;;;;;5014928;28;20077;-80
2022/08/26 02:08:52;;;;;;;6.97;3.83;;;19.00;71.00;;;;;;5014971;28;20028;-81
2022/08/26 02:11:18;;;;;;;6.45;3.67;;;19.10;70.90;;;;;;5015183;28;20461;-81
2022/08/26 02:14:15;;;;;;;4.95;3.25;;;19.10;71.00;;;;;;5015053;28;20110;-81
2022/08/26 02:16:44;;;;;;;4.45;3.22;;;19.10;70.90;;;;;;5002064;28;20030;-81
2022/08/26 02:19:15;;;;;;;4.88;3.38;;;19.10;70.90;;;;;;5015105;28;20058;-82
2022/08/26 02:21:42;;;;;;;4.90;3.70;;;19.10;70.90;;;;;;5015157;28;20426;-80
2022/08/26 02:24:14;;;;;;;8.65;4.03;;;19.20;70.70;;;;;;5015221;28;20021;-80
2022/08/26 02:26:41;;;;;;;6.00;3.17;;;19.20;70.50;;;;;;5015582;28;20049;-81
2022/08/26 02:29:15;;;;;;;4.90;3.17;;;19.20;70.50;;;;;;5033551;28;20017;-80
2022/08/26 02:31:40;;;;;;;7.22;3.55;;;19.20;70.30;;;;;;5032820;28;20085;-78
2022/08/26 02:34:14;;;;;;;4.35;3.33;;;19.10;70.50;;;;;;5029729;28;20026;-81
2022/08/26 02:36:40;;;;;;;3.88;3.47;;;18.90;71.00;;;;;;5014956;28;20092;-79
2022/08/26 02:39:06;;;;;;;4.60;3.55;;;18.80;71.30;;;;;;5014720;28;20479;-80
2022/08/26 02:41:33;;;;;;;5.68;3.40;;;18.70;71.60;;;;;;4996836;28;20042;-80
2022/08/26 02:43:59;;;;;;;7.32;3.13;;;18.70;72.20;;;;;;5014483;28;20493;-80
2022/08/26 02:46:26;;;;;;;6.18;3.40;;;18.70;72.10;;;;;;5014568;28;20026;-79
2022/08/26 02:48:51;;;;;;;3.88;3.08;;;18.70;72.00;;;;;;5014527;28;20022;-80
2022/08/26 02:51:17;;;;;;;3.97;3.47;;;18.80;71.70;;;;;;5014261;28;20018;-81
2022/08/26 02:53:42;;;;;;;4.18;3.33;;;18.80;71.50;;;;;;5014457;28;20025;-81
2022/08/26 02:56:09;;;;;;;3.50;3.13;;;18.90;71.30;;;;;;5014196;28;20026;-81
2022/08/26 02:58:35;;;;;;;5.07;3.15;;;18.80;71.20;;;;;;5014313;28;20022;-80
2022/08/26 03:01:01;;;;;;;3.83;3.20;;;18.70;71.60;;;;;;5013893;28;20053;-80
2022/08/26 03:03:26;;;;;;;3.97;3.20;;;18.70;71.80;;;;;;5013936;28;20493;-79
2022/08/26 03:05:53;;;;;;;3.42;3.13;;;18.70;72.20;;;;;;5014298;28;20033;-80
2022/08/26 03:08:19;;;;;;;4.22;3.45;;;18.70;71.70;;;;;;5014021;28;20467;-81
2022/08/26 03:10:48;;;;;;;9.15;3.25;;;18.80;71.70;;;;;;5013864;28;20034;-81
2022/08/26 03:13:14;;;;;;;4.55;3.83;;;18.70;71.50;;;;;;5014072;28;20033;-80
2022/08/26 03:15:40;;;;;;;3.55;3.22;;;18.70;71.40;;;;;;5013867;28;20026;-81
2022/08/26 03:18:06;;;;;;;4.13;3.35;;;18.70;71.20;;;;;;5013590;28;20030;-80
2022/08/26 03:20:32;;;;;;;4.38;3.13;;;18.70;71.40;;;;;;5013592;28;20022;-80
2022/08/26 03:22:58;;;;;;;4.85;3.25;;;18.70;71.30;;;;;;4996244;28;20026;-81
2022/08/26 03:25:24;;;;;;;5.78;3.45;;;18.70;71.20;;;;;;5013745;28;20032;-80
2022/08/26 03:27:51;;;;;;;5.97;3.85;;;18.60;71.30;;;;;;5013681;28;20061;-83
2022/08/26 03:33:01;;;;;;;3.90;3.50;;;18.60;71.80;;;;;;5013641;28;20370;-81
2022/08/26 03:35:27;;;;;;;4.28;3.88;;;18.60;71.60;;;;;;5013747;28;20034;-82
2022/08/26 03:37:53;;;;;;;3.83;3.45;;;18.60;71.60;;;;;;5013267;28;20033;-82
2022/08/26 03:40:19;;;;;;;3.35;3.05;;;18.60;71.60;;;;;;5013599;28;20026;-81
2022/08/26 03:42:44;;;;;;;8.55;3.97;;;18.60;71.50;;;;;;5013466;28;20042;-81
2022/08/26 03:45:11;;;;;;;4.10;3.70;;;18.60;71.40;;;;;;5013574;28;20382;-82
2022/08/26 03:47:38;;;;;;;4.47;3.25;;;18.60;71.60;;;;;;5013712;28;20364;-82
2022/08/26 03:50:07;;;;;;;5.82;3.47;;;18.50;71.60;;;;;;5016538;28;20061;-78
2022/08/26 03:52:33;;;;;;;7.85;4.07;;;18.50;71.50;;;;;;5013696;28;20105;-77
2022/08/26 03:54:58;;;;;;;4.90;3.13;;;18.50;71.60;;;;;;4995698;28;20109;-77
2022/08/26 03:57:24;;;;;;;4.10;3.63;;;18.40;71.80;;;;;;4995354;28;20095;-77
2022/08/26 03:59:50;;;;;;;4.78;3.28;;;18.30;72.20;;;;;;5013081;28;20082;-79
2022/08/26 04:02:16;;;;;;;4.22;3.22;;;18.30;72.30;;;;;;5013009;28;20038;-78
2022/08/26 04:04:41;;;;;;;6.15;3.55;;;18.40;72.30;;;;;;5013095;28;20046;-80
2022/08/26 04:07:07;;;;;;;6.60;3.28;;;18.30;72.50;;;;;;5013029;28;20068;-80
2022/08/26 04:09:33;;;;;;;4.30;3.90;;;18.20;72.50;;;;;;5011996;28;20360;-80
2022/08/26 04:11:58;;;;;;;3.92;3.50;;;18.20;72.80;;;;;;5013256;28;20025;-79
2022/08/26 04:14:26;;;;;;;5.80;4.32;;;18.10;72.90;;;;;;5013194;28;20048;-79
2022/08/26 04:16:52;;;;;;;5.03;3.88;;;18.20;72.90;;;;;;5013128;28;20048;-72
2022/08/26 04:19:19;;;;;;;5.75;4.00;;;18.10;73.20;;;;;;5013052;28;20481;-73
2022/08/26 04:21:46;;;;;;;5.85;3.63;;;18.00;73.30;;;;;;5012846;28;20073;-73
2022/08/26 04:24:14;;;;;;;6.45;4.05;;;18.00;73.50;;;;;;5012921;28;20441;-72
2022/08/26 04:26:41;;;;;;;5.88;4.25;;;18.00;73.60;;;;;;5013021;28;20387;-72
2022/08/26 04:29:11;;;;;;;6.15;3.83;;;17.90;73.90;;;;;;5012995;28;20034;-73
2022/08/26 04:31:36;;;;;;;6.55;4.22;;;17.80;74.10;;;;;;5016498;28;20387;-72
2022/08/26 04:34:04;;;;;;;5.03;4.00;;;17.70;74.60;;;;;;5016790;28;20029;-73
2022/08/26 04:36:29;;;;;;;7.63;4.32;;;17.70;74.80;;;;;;5016647;28;20530;-74
2022/08/26 04:38:55;;;;;;;7.35;4.50;;;17.60;75.00;;;;;;5016681;28;20121;-73
2022/08/26 04:41:22;;;;;;;5.80;3.88;;;17.50;75.30;;;;;;4998977;28;20509;-73
2022/08/26 04:43:49;;;;;;;4.80;3.80;;;17.40;75.50;;;;;;5019029;28;20089;-74
2022/08/26 04:46:18;;;;;;;5.03;3.90;;;17.40;75.80;;;;;;5019711;28;20097;-74
2022/08/26 04:48:44;;;;;;;4.15;3.75;;;17.30;76.00;;;;;;5016744;28;20095;-74
2022/08/26 04:51:10;;;;;;;9.30;4.45;;;17.30;76.10;;;;;;5016469;28;20378;-72
2022/08/26 04:53:36;;;;;;;8.60;4.15;;;17.30;76.00;;;;;;4998978;28;20022;-72
2022/08/26 04:56:02;;;;;;;5.50;4.03;;;17.40;75.90;;;;;;5016453;28;20026;-73
2022/08/26 04:58:28;;;;;;;4.43;3.97;;;17.40;75.60;;;;;;5016318;28;20026;-73
2022/08/26 05:00:55;;;;;;;4.45;3.80;;;17.50;75.40;;;;;;5014640;28;20160;-73
2022/08/26 05:03:22;;;;;;;6.85;3.90;;;17.50;75.30;;;;;;5016196;28;20056;-72
2022/08/26 05:05:48;;;;;;;5.43;4.32;;;17.50;75.20;;;;;;5016331;28;20022;-73
2022/08/26 05:08:15;;;;;;;5.20;3.97;;;17.60;75.00;;;;;;5015950;28;20045;-72
2022/08/26 05:10:47;;;;;;;6.57;3.75;;;17.70;74.70;;;;;;5016092;28;20060;-72
2022/08/26 05:13:15;;;;;;;5.70;4.55;;;17.70;74.40;;;;;;5016226;28;20022;-72
2022/08/26 05:15:40;;;;;;;8.10;4.13;;;17.70;74.20;;;;;;5015773;28;20033;-72
2022/08/26 05:18:07;;;;;;;7.00;4.00;;;17.70;74.20;;;;;;5015952;28;20029;-72
2022/08/26 05:20:41;;;;;;;7.47;4.28;;;17.80;73.90;;;;;;5015779;28;20101;-72
2022/08/26 05:23:07;;;;;;;9.50;4.22;;;17.80;74.00;;;;;;5015699;28;20216;-72
2022/08/26 05:25:40;;;;;;;7.00;4.35;;;17.80;73.70;;;;;;5015790;28;20105;-72
2022/08/26 05:28:09;;;;;;;9.15;4.40;;;17.90;73.70;;;;;;5015678;28;20386;-72
2022/08/26 05:30:35;;;;;;;4.47;3.42;;;17.90;73.50;;;;;;5015877;28;20494;-72
2022/08/26 05:33:01;;;;;;;5.85;3.95;;;17.80;73.40;;;;;;5015624;28;20025;-72
2022/08/26 05:35:32;;;;;;;5.03;4.53;;;18.00;73.00;;;;;;5015462;28;20026;-71
2022/08/26 05:38:03;;;;;;;6.57;4.07;;;18.00;72.60;;;;;;5015428;28;20022;-71
2022/08/26 05:40:33;;;;;;;5.25;3.90;;;18.10;72.80;;;;;;5015325;28;20093;-70
2022/08/26 05:42:59;;;;;;;6.75;3.67;;;18.30;71.70;;;;;;5014686;28;20485;-71
2022/08/26 05:45:25;;;;;;;4.10;3.65;;;18.30;71.00;;;;;;5015351;28;20097;-72
2022/08/26 05:47:51;;;;;;;4.82;2.97;;;18.40;70.90;;;;;;5015302;28;20026;-71
2022/08/26 05:50:20;;;;;;;11.63;3.90;;;18.50;70.70;;;;;;5015323;28;20382;-72
2022/08/26 05:52:48;;;;;;;5.47;3.60;;;18.60;70.20;;;;;;5015442;28;20030;-72
2022/08/26 05:55:13;;;;;;;4.88;3.85;;;18.70;69.90;;;;;;5015036;28;20059;-70
2022/08/26 05:57:39;;;;;;;5.50;3.20;;;18.80;69.60;;;;;;5015187;28;20033;-73
2022/08/26 06:00:05;;;;;;;4.13;3.42;;;18.90;69.60;;;;;;5014919;28;20054;-72
2022/08/26 06:02:30;;;;;;;6.95;3.60;;;19.00;68.70;;;;;;5014890;28;20468;-72
2022/08/26 06:04:56;;;;;;;7.53;3.90;;;19.10;68.50;;;;;;5014717;28;20030;-72
2022/08/26 06:08:09;;;;;;;6.18;3.95;;;19.20;68.20;;;;;;5014734;28;20025;-72
2022/08/26 06:10:12;;;;;;;21.02;5.03;;;19.20;68.20;;;;;;5014803;28;20022;-73
2022/08/26 06:12:38;;;;;;;9.35;4.15;;;19.20;68.20;;;;;;4997230;28;20141;-72
2022/08/26 06:15:04;;;;;;;5.75;3.75;;;19.30;68.00;;;;;;4997309;28;20109;-73
2022/08/26 06:17:30;;;;;;;8.18;4.10;;;19.30;67.80;;;;;;5014758;28;20034;-73
2022/08/26 06:19:57;;;;;;;10.65;4.45;;;19.40;67.50;;;;;;5014868;28;20026;-74
2022/08/26 06:27:51;;;;;;;3.47;3.15;;;19.60;66.50;;;;;;5018631;28;20533;-74
2022/08/26 06:30:17;;;;;;;5.93;3.22;;;19.80;66.30;;;;;;5014685;28;20030;-74
2022/08/26 06:32:43;;;;;;;9.93;3.80;;;19.90;65.80;;;;;;5014454;28;20034;-74
2022/08/26 06:35:08;;;;;;;6.85;3.60;;;20.00;65.70;;;;;;5014377;28;20026;-75
2022/08/26 06:37:34;;;;;;;4.93;3.38;;;20.20;65.10;;;;;;5014357;28;20026;-74
2022/08/26 06:39:59;;;;;;;7.70;3.35;;;20.40;64.80;;;;;;4996946;28;20052;-73
2022/08/26 06:42:25;;;;;;;5.65;3.10;;;20.40;64.60;;;;;;5014474;28;20429;-74
2022/08/26 06:44:50;;;;;;;5.85;2.97;;;20.60;64.20;;;;;;5014475;28;20022;-73
2022/08/26 06:47:16;;;;;;;9.48;3.28;;;20.70;63.80;;;;;;5014137;28;20030;-72
2022/08/26 06:49:41;;;;;;;4.32;3.17;;;20.90;63.20;;;;;;5014187;28;20026;-73
2022/08/26 06:52:07;;;;;;;6.57;3.85;;;21.10;62.70;;;;;;5014062;28;20120;-73
2022/08/26 06:54:32;;;;;;;7.72;3.25;;;21.10;61.70;;;;;;5014107;28;20034;-73
2022/08/26 06:56:59;;;;;;;8.02;3.33;;;21.20;61.60;;;;;;5013964;28;20474;-72
2022/08/26 06:59:24;;;;;;;5.20;2.80;;;21.30;61.80;;;;;;5013728;28;20133;-74
2022/08/26 07:01:51;;;;;;;9.00;3.47;;;21.40;61.00;;;;;;5013891;28;20030;-72
2022/08/26 07:04:17;;;;;;;4.07;2.88;;;21.50;61.10;;;;;;5013668;28;20033;-77
2022/08/26 07:06:48;;;;;;;3.35;3.05;;;21.60;60.50;;;;;;5013844;28;20026;-73
2022/08/26 07:09:14;;;;;;;4.85;3.00;;;21.80;60.30;;;;;;5013930;28;20371;-73
2022/08/26 07:11:40;;;;;;;3.95;3.15;;;22.00;59.90;;;;;;5013627;28;20487;-73
2022/08/26 07:14:06;;;;;;;7.15;2.88;;;22.20;59.20;;;;;;5013768;28;20026;-73
2022/08/26 07:16:32;;;;;;;3.60;2.88;;;22.40;58.70;;;;;;4996139;28;20026;-72
2022/08/26 07:18:57;;;;;;;3.78;2.83;;;22.50;57.90;;;;;;5013969;28;20022;-73
2022/08/26 07:21:24;;;;;;;5.60;3.03;;;22.60;57.60;;;;;;5013475;28;20102;-72
2022/08/26 07:23:51;;;;;;;3.20;2.90;;;22.70;58.00;;;;;;4995664;28;20056;-72
2022/08/26 07:26:20;;;;;;;3.75;3.20;;;22.80;58.30;;;;;;5013323;28;20026;-72
2022/08/26 07:28:49;;;;;;;5.30;2.83;;;22.90;58.10;;;;;;5013470;28;20045;-72
2022/08/26 07:31:16;;;;;;;3.65;2.63;;;23.00;57.60;;;;;;5013161;28;20144;-73
2022/08/26 07:33:42;;;;;;;6.05;2.53;;;23.20;57.20;;;;;;5013052;28;20018;-71
2022/08/26 07:36:10;;;;;;;4.50;2.90;;;23.30;56.70;;;;;;5012963;28;20034;-72
2022/08/26 07:38:36;;;;;;;4.00;2.47;;;23.50;56.60;;;;;;5013056;28;20114;-72
2022/08/26 07:41:02;;;;;;;2.78;2.45;;;23.70;55.80;;;;;;5013094;28;20037;-73
2022/08/26 07:43:28;;;;;;;3.60;2.55;;;23.80;56.00;;;;;;5013265;28;20029;-72
2022/08/26 07:45:55;;;;;;;6.00;2.40;;;23.90;54.80;;;;;;5012806;28;20022;-71
2022/08/26 07:48:20;;;;;;;5.90;2.70;;;24.00;54.40;;;;;;5013044;28;20030;-72
2022/08/26 07:50:46;;;;;;;4.80;2.42;;;24.10;54.40;;;;;;5012955;28;20022;-72
2022/08/26 07:53:13;;;;;;;2.70;2.08;;;24.20;54.30;;;;;;5013005;28;20034;-72
2022/08/26 07:55:38;;;;;;;4.65;2.50;;;24.40;54.00;;;;;;5012870;28;20022;-72
2022/08/26 07:58:05;;;;;;;2.60;2.40;;;24.40;53.60;;;;;;4995139;28;20084;-72
2022/08/26 08:00:31;;;;;;;3.47;2.60;;;24.40;53.30;;;;;;5012805;28;20094;-72
2022/08/26 08:02:59;;;;;;;4.97;3.65;;;24.50;53.10;;;;;;5012792;28;20033;-72
2022/08/26 08:05:24;;;;;;;4.55;2.92;;;24.50;53.20;;;;;;4994899;28;20026;-73
2022/08/26 08:07:51;;;;;;;4.65;2.70;;;24.50;53.60;;;;;;5011727;28;20113;-73
2022/08/26 08:10:21;;;;;;;5.32;2.83;;;24.60;53.60;;;;;;5013316;28;20490;-73
2022/08/26 08:12:48;;;;;;;2.97;2.63;;;24.60;53.30;;;;;;5013673;28;20030;-73
2022/08/26 08:15:14;;;;;;;3.40;3.08;;;24.70;53.70;;;;;;5012061;28;20111;-72
2022/08/26 08:17:42;;;;;;;5.15;2.88;;;24.80;53.50;;;;;;5012731;28;20427;-72
2022/08/26 08:20:08;;;;;;;2.47;2.28;;;24.90;53.70;;;;;;5012818;28;20033;-72
2022/08/26 08:22:34;;;;;;;3.90;3.42;;;25.10;52.90;;;;;;4995160;28;20041;-72
2022/08/26 08:25:00;;;;;;;4.28;3.00;;;25.10;52.00;;;;;;5012863;28;20022;-73
2022/08/26 08:27:25;;;;;;;6.28;3.20;;;25.20;51.60;;;;;;5013011;28;20029;-73
2022/08/26 08:29:55;;;;;;;3.35;3.05;;;25.20;51.40;;;;;;5012809;28;20097;-72
2022/08/26 08:32:21;;;;;;;4.38;2.97;;;25.30;51.70;;;;;;5012702;28;20041;-72
2022/08/26 08:34:47;;;;;;;7.03;4.03;;;25.40;50.80;;;;;;5012620;28;20026;-72
2022/08/26 08:37:12;;;;;;;6.55;3.72;;;25.50;49.60;;;;;;5012801;28;20025;-72
2022/08/26 08:39:38;;;;;;;4.38;3.90;;;25.60;49.50;;;;;;5012624;28;20032;-73
2022/08/26 08:42:26;;;;;;;6.78;5.32;;;25.60;49.20;;;;;;5012205;28;20030;-73
2022/08/26 08:44:55;;;;;;;11.02;4.53;;;25.70;48.10;;;;;;4995104;28;20022;-72
2022/08/26 08:47:41;;;;;;;4.95;3.55;;;25.80;48.30;;;;;;5012874;28;20117;-73
2022/08/26 08:50:27;;;;;;;7.05;3.00;;;26.00;48.90;;;;;;4994997;28;20092;-72
2022/08/26 08:53:25;;;;;;;;;;;26.20;48.90;;;;;;5012825;28;20038;-73
2022/08/26 08:56:11;;;;;;;4.05;3.22;;;26.20;46.70;;;;;;4979509;28;20376;-73
2022/08/26 08:58:49;;;;;;;4.07;3.45;;;26.10;47.00;;;;;;5011857;28;20034;-72
2022/08/26 09:01:29;;;;;;;6.43;3.10;;;26.20;46.80;;;;;;5012367;28;20390;-73
2022/08/26 09:04:16;;;;;;;7.95;3.05;;;26.20;47.30;;;;;;5012569;28;20018;-73
2022/08/26 09:06:42;;;;;;;3.40;3.10;;;26.30;46.60;;;;;;5012601;28;20056;-72
2022/08/26 09:09:11;;;;;;;4.88;3.17;;;26.40;47.10;;;;;;5012444;28;20026;-72
2022/08/26 09:11:37;;;;;;;3.30;2.92;;;26.60;45.80;;;;;;5012165;28;20391;-72
2022/08/26 09:14:03;;;;;;;4.43;3.30;;;26.90;45.80;;;;;;5012387;28;20025;-73
2022/08/26 09:16:44;;;;;;;4.88;3.28;;;27.10;44.70;;;;;;5011893;28;20026;-72
2022/08/26 09:19:39;;;;;;;6.35;2.80;;;27.30;44.70;;;;;;5015505;28;20018;-73
2022/08/26 09:22:04;;;;;;;5.95;3.10;;;27.50;44.20;;;;;;5015927;28;20026;-73
2022/08/26 09:24:33;;;;;;;3.78;2.90;;;27.70;42.90;;;;;;5015682;28;20065;-73
2022/08/26 09:26:59;;;;;;;6.28;3.03;;;27.80;43.50;;;;;;5015730;28;20026;-72
2022/08/26 09:29:32;;;;;;;5.13;2.88;;;27.80;41.90;;;;;;5015484;28;20037;-71
2022/08/26 09:32:20;;;;;;;3.95;3.05;;;27.50;41.50;;;;;;5015405;28;20509;-71
2022/08/26 09:34:55;;;;;;;2.85;2.65;;;27.50;42.50;;;;;;5015436;28;20075;-71
2022/08/26 09:37:36;;;;;;;3.40;2.78;;;27.60;42.20;;;;;;5015269;28;20072;-74
2022/08/26 09:40:23;;;;;;;3.35;2.72;;;27.60;41.30;;;;;;5015456;28;20069;-74
2022/08/26 09:43:06;;;;;;;3.05;2.50;;;27.80;41.20;;;;;;5015355;28;20486;-74
2022/08/26 09:45:32;;;;;;;3.90;2.63;;;28.10;41.10;;;;;;5015465;28;20041;-74
2022/08/26 09:47:57;;;;;;;3.70;2.60;;;28.40;39.50;;;;;;5015377;28;20021;-73
2022/08/26 09:50:39;;;;;;;3.25;2.60;;;28.20;39.00;;;;;;5014946;28;20022;-74
2022/08/26 09:53:08;;;;;;;3.15;2.85;;;28.40;38.70;;;;;;5015064;28;20044;-74
2022/08/26 09:55:35;;;;;;;4.07;3.08;;;28.60;39.50;;;;;;5015070;28;20013;-74
2022/08/26 09:58:01;;;;;;;3.33;2.88;;;28.80;38.00;;;;;;5014799;28;20037;-74
2022/08/26 10:00:38;;;;;;;3.90;2.40;;;29.00;37.90;;;;;;5014694;28;20046;-73
2022/08/26 10:03:08;;;;;;;3.15;2.47;;;29.30;37.10;;;;;;5014957;28;20471;-74
2022/08/26 10:05:55;;;;;;;4.40;2.95;;;29.30;35.90;;;;;;5014705;28;20036;-74
2022/08/26 10:08:34;;;;;;;3.67;2.50;;;29.30;36.40;;;;;;5014022;28;20026;-74
2022/08/26 10:11:04;;;;;;;2.83;2.53;;;29.20;37.40;;;;;;5014611;28;20034;-74
2022/08/26 10:13:41;;;;;;;6.00;3.17;;;29.40;37.40;;;;;;5014450;28;20064;-74
2022/08/26 10:16:23;;;;;;;5.93;3.13;;;29.50;36.30;;;;;;5014737;28;20022;-73
2022/08/26 10:19:01;;;;;;;2.80;2.60;;;29.50;37.00;;;;;;5014065;28;20018;-74
2022/08/26 10:21:34;;;;;;;3.80;3.10;;;29.50;36.60;;;;;;5014385;28;20029;-74
2022/08/26 10:24:02;;;;;;;5.10;2.55;;;29.60;36.40;;;;;;4996537;28;20131;-73
2022/08/26 10:26:34;;;;;;;5.55;2.63;;;29.50;36.10;;;;;;5014161;28;20034;-74
2022/08/26 10:29:11;;;;;;;3.40;2.67;;;29.70;35.70;;;;;;5014094;28;20118;-74
2022/08/26 10:32:01;;;;;;;4.65;2.88;;;29.70;35.30;;;;;;5013399;28;20030;-74
2022/08/26 10:34:27;;;;;;;3.83;2.65;;;29.90;35.20;;;;;;4997285;28;20619;-74
2022/08/26 10:37:07;;;;;;;3.60;2.20;;;30.20;33.90;;;;;;4997171;28;20167;-73
2022/08/26 10:39:45;;;;;;;4.32;2.42;;;30.20;33.10;;;;;;4997405;28;20438;-75
2022/08/26 10:42:42;;;;;;;2.53;2.33;;;30.40;33.10;;;;;;5014719;28;20073;-73
2022/08/26 10:45:24;;;;;;;2.65;2.45;;;30.60;33.10;;;;;;4996887;28;20029;-73
2022/08/26 10:47:59;;;;;;;2.85;2.65;;;30.80;32.00;;;;;;4997151;28;20041;-74
2022/08/26 10:50:37;;;;;;;5.03;2.58;;;31.10;31.40;;;;;;5013512;28;20022;-74
2022/08/26 10:53:15;;;;;;;3.92;2.30;;;31.00;32.30;;;;;;5013370;28;20034;-74
2022/08/26 10:56:02;;;;;;;3.25;2.13;;;31.00;31.80;;;;;;5013485;28;20080;-74
2022/08/26 10:58:52;;;;;;;2.83;2.53;;;31.00;33.80;;;;;;4996851;28;20445;-76
2022/08/26 11:01:45;;;;;;;2.80;2.60;;;31.20;32.20;;;;;;5013075;28;20048;-73
2022/08/26 11:04:33;;;;;;;3.90;2.80;;;30.90;32.30;;;;;;4996865;28;20029;-74
2022/08/26 11:07:39;;;;;;;4.68;2.15;;;30.80;32.20;;;;;;4996978;28;20486;-73
2022/08/26 11:10:29;;;;;;;6.20;2.70;;;31.00;31.90;;;;;;5013419;28;20033;-73
2022/08/26 11:13:00;;;;;;;2.60;2.40;;;31.00;30.60;;;;;;4995670;28;20678;-74
2022/08/26 11:15:26;;;;;;;3.58;2.50;;;31.20;30.50;;;;;;4996383;28;20029;-74
2022/08/26 11:17:54;;;;;;;2.65;2.42;;;31.30;31.30;;;;;;5012356;28;20075;-73
2022/08/26 11:20:31;;;;;;;3.92;2.88;;;31.00;31.10;;;;;;5019829;28;20052;-74
2022/08/26 11:23:12;;;;;;;3.08;2.20;;;30.40;31.10;;;;;;5013653;28;20018;-74
2022/08/26 11:26:14;;;;;;;4.68;2.42;;;30.70;30.40;;;;;;5012311;28;20068;-73
2022/08/26 11:28:43;;;;;;;2.90;2.63;;;31.20;30.30;;;;;;4953022;28;20023;-74
2022/08/26 11:31:37;;;;;;;2.83;2.53;;;31.40;29.10;;;;;;5002931;28;20506;-74
2022/08/26 11:34:05;;;;;;;3.67;2.45;;;31.10;30.30;;;;;;5007785;28;20086;-74
2022/08/26 11:36:38;;;;;;;5.22;2.88;;;31.10;29.70;;;;;;5013348;28;20021;-74
2022/08/26 11:39:18;;;;;;;4.05;2.65;;;31.50;30.00;;;;;;5012757;28;20026;-75
2022/08/26 11:41:46;;;;;;;4.65;2.67;;;31.90;29.20;;;;;;5012791;28;20018;-74
2022/08/26 11:44:17;;;;;;;3.40;2.70;;;32.30;29.00;;;;;;5011889;28;20026;-74
2022/08/26 11:46:52;;;;;;;2.97;2.22;;;32.30;28.10;;;;;;5013323;28;20030;-74
2022/08/26 11:49:18;;;;;;;2.70;2.33;;;32.10;29.00;;;;;;5013636;28;20092;-75
2022/08/26 11:51:44;;;;;;;8.30;2.50;;;31.90;28.10;;;;;;5013243;28;20065;-74
2022/08/26 11:54:18;;;;;;;3.92;2.63;;;32.00;27.70;;;;;;5014371;28;20084;-74
2022/08/26 11:56:47;;;;;;;2.20;1.88;;;32.20;27.00;;;;;;5013492;28;20033;-75
2022/08/26 11:59:21;;;;;;;4.22;2.47;;;32.60;27.20;;;;;;5013365;28;20248;-73
2022/08/26 12:01:50;;;;;;;4.63;2.30;;;32.60;26.90;;;;;;5013107;28;20478;-75
2022/08/26 12:04:30;;;;;;;7.85;3.67;;;32.60;26.70;;;;;;5013020;28;20038;-75
2022/08/26 12:06:57;;;;;;;8.70;3.97;;;32.10;30.40;;;;;;5013117;28;20030;-76
2022/08/26 12:09:33;;;;;;;8.98;3.78;;;31.30;31.70;;;;;;5012979;28;20026;-75
2022/08/26 12:12:23;;;;;;;10.93;4.20;;;30.60;32.60;;;;;;5012992;28;20045;-75
2022/08/26 12:15:02;;;;;;;4.90;3.33;;;30.10;33.80;;;;;;5012989;28;20018;-75
2022/08/26 12:17:28;;;;;;;7.28;3.70;;;29.70;34.30;;;;;;5012835;28;20101;-76
2022/08/26 12:19:53;;;;;;;6.63;3.85;;;29.50;35.30;;;;;;5011519;28;20161;-76
2022/08/26 12:22:24;;;;;;;6.68;3.30;;;29.60;35.60;;;;;;5012933;28;20029;-75
2022/08/26 12:24:59;;;;;;;9.55;3.83;;;29.60;34.30;;;;;;5013108;28;20536;-75
2022/08/26 12:27:26;;;;;;;;;;;29.40;34.60;;;;;;5013542;28;20067;-75
2022/08/26 12:30:04;;;;;;;7.15;3.40;;;29.40;34.20;;;;;;5013187;28;19905;-75
2022/08/26 12:32:30;;;;;;;8.10;4.00;;;29.60;34.00;;;;;;5012501;28;20041;-75
2022/08/26 12:34:56;;;;;;;5.78;2.88;;;29.60;34.20;;;;;;5012842;28;20101;-75
2022/08/26 12:37:23;;;;;;;7.25;3.53;;;30.00;33.20;;;;;;5012662;28;20505;-75
2022/08/26 12:39:48;;;;;;;5.18;3.38;;;30.10;33.00;;;;;;5012639;28;20026;-76
2022/08/26 12:42:14;;;;;;;5.57;3.30;;;30.40;32.90;;;;;;5012592;28;20549;-75
2022/08/26 12:45:02;;;;;;;4.60;3.47;;;30.50;32.10;;;;;;5012691;28;20024;-75
2022/08/26 12:47:36;;;;;;;6.85;3.67;;;30.60;32.10;;;;;;5012551;28;20033;-75
2022/08/26 12:50:17;;;;;;;5.30;3.45;;;30.70;31.60;;;;;;5012763;28;20439;-75
2022/08/26 12:52:50;;;;;;;7.57;3.13;;;30.80;31.70;;;;;;5016134;28;20502;-75
2022/08/26 12:55:37;;;;;;;7.88;3.13;;;30.60;31.40;;;;;;5016150;28;20036;-76
2022/08/26 12:58:20;;;;;;;5.80;3.65;;;30.20;32.10;;;;;;5015995;28;20022;-76
2022/08/26 13:00:47;;;;;;;8.90;4.43;;;29.80;33.50;;;;;;5016054;28;20074;-76
2022/08/26 13:03:34;;;;;;;7.88;4.13;;;29.30;34.70;;;;;;5016084;28;20030;-76
2022/08/26 13:06:21;;;;;;;6.53;3.92;;;28.70;36.40;;;;;;5016072;28;20504;-76
2022/08/26 13:08:50;;;;;;;10.20;4.28;;;28.30;37.30;;;;;;5015727;28;20038;-76
2022/08/26 13:11:18;;;;;;;9.75;4.18;;;28.20;37.60;;;;;;5015510;28;20033;-74
2022/08/26 13:13:46;;;;;;;9.82;3.60;;;28.10;38.10;;;;;;5015682;28;20026;-75